Terminal Aerodrome Forecast
Issued by NWS Portland, ME

Home | Current Version | Previous Version | Text Only | Print | Product List | Glossary On
Versions: 1 2 3 4 5 6 7 8 9 10 11 12 13 14 15 16 17 18 19 20 21 22
373
FTUS41 KGYX 200133 AAB
TAFCON
TAF AMD
KCON 200133Z 2002/2024 32010G16KT P6SM OVC070
      TEMPO 2002/2004 SCT070
     FM201300 32013G21KT P6SM SKC=

USA.gov is the U.S. government's official web portal to all federal, state and local government web resources and services.